sensor_id;sensor_type;location;lat;lon;timestamp;P1;durP1;ratioP1;P2;durP2;ratioP2
75400;SDS011;63974;47.538;18.972;2023-04-25T00:01:44;2.97;;;0.80;;
75400;SDS011;63974;47.538;18.972;2023-04-25T00:04:47;1.10;;;0.60;;
75400;SDS011;63974;47.538;18.972;2023-04-25T00:07:51;1.47;;;1.00;;
75400;SDS011;63974;47.538;18.972;2023-04-25T00:10:54;1.55;;;0.80;;
75400;SDS011;63974;47.538;18.972;2023-04-25T00:13:57;1.95;;;1.10;;
75400;SDS011;63974;47.538;18.972;2023-04-25T00:17:02;1.15;;;0.80;;
75400;SDS011;63974;47.538;18.972;2023-04-25T00:20:08;1.65;;;0.70;;
75400;SDS011;63974;47.538;18.972;2023-04-25T00:23:12;1.30;;;0.60;;
75400;SDS011;63974;47.538;18.972;2023-04-25T00:26:20;2.47;;;0.70;;
75400;SDS011;63974;47.538;18.972;2023-04-25T00:29:23;2.17;;;1.05;;
75400;SDS011;63974;47.538;18.972;2023-04-25T00:32:26;1.50;;;0.65;;
75400;SDS011;63974;47.538;18.972;2023-04-25T00:35:29;1.90;;;0.90;;
75400;SDS011;63974;47.538;18.972;2023-04-25T00:38:32;1.67;;;0.60;;
75400;SDS011;63974;47.538;18.972;2023-04-25T00:41:35;1.08;;;0.60;;
75400;SDS011;63974;47.538;18.972;2023-04-25T00:44:38;1.55;;;0.93;;
75400;SDS011;63974;47.538;18.972;2023-04-25T00:47:42;1.73;;;0.95;;
75400;SDS011;63974;47.538;18.972;2023-04-25T00:50:48;3.83;;;1.52;;
75400;SDS011;63974;47.538;18.972;2023-04-25T00:53:56;1.50;;;1.03;;
75400;SDS011;63974;47.538;18.972;2023-04-25T00:56:59;3.38;;;1.42;;
75400;SDS011;63974;47.538;18.972;2023-04-25T01:00:04;1.90;;;0.90;;
75400;SDS011;63974;47.538;18.972;2023-04-25T01:03:09;2.80;;;1.67;;
75400;SDS011;63974;47.538;18.972;2023-04-25T01:06:12;2.58;;;1.30;;
75400;SDS011;63974;47.538;18.972;2023-04-25T01:09:15;3.53;;;1.37;;
75400;SDS011;63974;47.538;18.972;2023-04-25T01:12:19;4.18;;;1.50;;
75400;SDS011;63974;47.538;18.972;2023-04-25T01:15:22;2.65;;;1.23;;
75400;SDS011;63974;47.538;18.972;2023-04-25T01:18:25;1.50;;;1.00;;
75400;SDS011;63974;47.538;18.972;2023-04-25T01:21:28;1.67;;;0.98;;
75400;SDS011;63974;47.538;18.972;2023-04-25T01:24:32;2.77;;;1.53;;
75400;SDS011;63974;47.538;18.972;2023-04-25T01:27:36;2.97;;;1.13;;
75400;SDS011;63974;47.538;18.972;2023-04-25T01:30:40;2.60;;;1.38;;
75400;SDS011;63974;47.538;18.972;2023-04-25T01:33:44;3.22;;;1.40;;
75400;SDS011;63974;47.538;18.972;2023-04-25T01:36:48;2.83;;;1.50;;
75400;SDS011;63974;47.538;18.972;2023-04-25T01:39:52;3.47;;;1.23;;
75400;SDS011;63974;47.538;18.972;2023-04-25T01:42:57;4.18;;;1.40;;
75400;SDS011;63974;47.538;18.972;2023-04-25T01:46:00;2.35;;;1.33;;
75400;SDS011;63974;47.538;18.972;2023-04-25T01:49:03;3.65;;;1.48;;
75400;SDS011;63974;47.538;18.972;2023-04-25T01:52:07;2.25;;;1.30;;
75400;SDS011;63974;47.538;18.972;2023-04-25T01:55:11;4.20;;;1.27;;
75400;SDS011;63974;47.538;18.972;2023-04-25T01:58:22;2.25;;;1.27;;
75400;SDS011;63974;47.538;18.972;2023-04-25T02:01:39;2.35;;;1.30;;
75400;SDS011;63974;47.538;18.972;2023-04-25T02:04:56;2.35;;;1.30;;
75400;SDS011;63974;47.538;18.972;2023-04-25T02:08:01;3.10;;;1.88;;
75400;SDS011;63974;47.538;18.972;2023-04-25T02:11:04;2.23;;;1.20;;
75400;SDS011;63974;47.538;18.972;2023-04-25T02:14:15;2.00;;;1.20;;
75400;SDS011;63974;47.538;18.972;2023-04-25T02:17:27;2.47;;;1.23;;
75400;SDS011;63974;47.538;18.972;2023-04-25T02:20:30;1.52;;;0.90;;
75400;SDS011;63974;47.538;18.972;2023-04-25T02:23:33;1.33;;;0.95;;
75400;SDS011;63974;47.538;18.972;2023-04-25T02:26:36;2.57;;;1.60;;
75400;SDS011;63974;47.538;18.972;2023-04-25T02:29:43;2.50;;;1.27;;
75400;SDS011;63974;47.538;18.972;2023-04-25T02:32:46;2.70;;;1.35;;
75400;SDS011;63974;47.538;18.972;2023-04-25T02:35:48;2.15;;;1.40;;
75400;SDS011;63974;47.538;18.972;2023-04-25T02:38:51;2.67;;;1.20;;
75400;SDS011;63974;47.538;18.972;2023-04-25T02:41:55;1.50;;;1.13;;
75400;SDS011;63974;47.538;18.972;2023-04-25T02:44:58;1.88;;;1.10;;
75400;SDS011;63974;47.538;18.972;2023-04-25T02:48:02;2.03;;;1.25;;
75400;SDS011;63974;47.538;18.972;2023-04-25T02:51:06;1.52;;;1.10;;
75400;SDS011;63974;47.538;18.972;2023-04-25T02:54:09;3.83;;;1.42;;
75400;SDS011;63974;47.538;18.972;2023-04-25T02:57:16;3.37;;;1.80;;
75400;SDS011;63974;47.538;18.972;2023-04-25T03:00:19;2.15;;;1.10;;
75400;SDS011;63974;47.538;18.972;2023-04-25T03:03:22;3.42;;;1.17;;
75400;SDS011;63974;47.538;18.972;2023-04-25T03:06:26;3.75;;;1.05;;
75400;SDS011;63974;47.538;18.972;2023-04-25T03:09:29;1.73;;;0.85;;
75400;SDS011;63974;47.538;18.972;2023-04-25T03:12:32;2.60;;;1.53;;
75400;SDS011;63974;47.538;18.972;2023-04-25T03:15:35;1.23;;;0.90;;
75400;SDS011;63974;47.538;18.972;2023-04-25T03:18:38;3.40;;;0.77;;
75400;SDS011;63974;47.538;18.972;2023-04-25T03:21:41;1.90;;;1.05;;
75400;SDS011;63974;47.538;18.972;2023-04-25T03:24:44;3.15;;;1.40;;
75400;SDS011;63974;47.538;18.972;2023-04-25T03:27:48;3.07;;;1.10;;
75400;SDS011;63974;47.538;18.972;2023-04-25T03:30:51;1.80;;;1.20;;
75400;SDS011;63974;47.538;18.972;2023-04-25T03:33:54;2.08;;;0.98;;
75400;SDS011;63974;47.538;18.972;2023-04-25T03:36:58;2.70;;;1.00;;
75400;SDS011;63974;47.538;18.972;2023-04-25T03:40:02;3.78;;;1.17;;
75400;SDS011;63974;47.538;18.972;2023-04-25T03:43:26;2.23;;;1.10;;
75400;SDS011;63974;47.538;18.972;2023-04-25T03:46:34;1.30;;;0.88;;
75400;SDS011;63974;47.538;18.972;2023-04-25T03:49:37;3.13;;;1.30;;
75400;SDS011;63974;47.538;18.972;2023-04-25T03:52:41;1.80;;;1.05;;
75400;SDS011;63974;47.538;18.972;2023-04-25T03:55:44;1.92;;;1.35;;
75400;SDS011;63974;47.538;18.972;2023-04-25T03:58:47;2.17;;;0.97;;
75400;SDS011;63974;47.538;18.972;2023-04-25T04:01:53;1.67;;;1.05;;
75400;SDS011;63974;47.538;18.972;2023-04-25T04:04:57;1.55;;;0.90;;
75400;SDS011;63974;47.538;18.972;2023-04-25T04:08:01;2.15;;;0.93;;
75400;SDS011;63974;47.538;18.972;2023-04-25T04:11:05;1.70;;;1.10;;
75400;SDS011;63974;47.538;18.972;2023-04-25T04:14:08;3.63;;;1.23;;
75400;SDS011;63974;47.538;18.972;2023-04-25T04:17:16;1.80;;;1.42;;
75400;SDS011;63974;47.538;18.972;2023-04-25T04:20:19;2.13;;;1.30;;
75400;SDS011;63974;47.538;18.972;2023-04-25T04:23:23;4.30;;;1.27;;
75400;SDS011;63974;47.538;18.972;2023-04-25T04:26:26;1.85;;;1.05;;
75400;SDS011;63974;47.538;18.972;2023-04-25T04:29:41;2.07;;;0.90;;
75400;SDS011;63974;47.538;18.972;2023-04-25T04:32:58;1.40;;;0.80;;
75400;SDS011;63974;47.538;18.972;2023-04-25T04:36:01;3.03;;;1.05;;
75400;SDS011;63974;47.538;18.972;2023-04-25T04:39:06;1.88;;;0.85;;
75400;SDS011;63974;47.538;18.972;2023-04-25T04:42:16;2.67;;;1.02;;
75400;SDS011;63974;47.538;18.972;2023-04-25T04:45:40;3.10;;;1.07;;
75400;SDS011;63974;47.538;18.972;2023-04-25T04:49:06;2.15;;;0.75;;
75400;SDS011;63974;47.538;18.972;2023-04-25T04:52:18;1.90;;;1.20;;
75400;SDS011;63974;47.538;18.972;2023-04-25T04:55:30;1.58;;;0.98;;
75400;SDS011;63974;47.538;18.972;2023-04-25T04:58:56;2.75;;;1.17;;
75400;SDS011;63974;47.538;18.972;2023-04-25T05:02:17;8.90;;;3.13;;
75400;SDS011;63974;47.538;18.972;2023-04-25T05:05:32;2.30;;;1.17;;
75400;SDS011;63974;47.538;18.972;2023-04-25T05:08:38;1.73;;;1.02;;
75400;SDS011;63974;47.538;18.972;2023-04-25T05:11:53;5.65;;;1.38;;
75400;SDS011;63974;47.538;18.972;2023-04-25T05:15:04;2.28;;;0.90;;
75400;SDS011;63974;47.538;18.972;2023-04-25T05:18:27;3.07;;;1.10;;
75400;SDS011;63974;47.538;18.972;2023-04-25T05:21:44;2.33;;;1.10;;
75400;SDS011;63974;47.538;18.972;2023-04-25T05:25:05;1.67;;;1.20;;
75400;SDS011;63974;47.538;18.972;2023-04-25T05:28:25;1.83;;;0.90;;
75400;SDS011;63974;47.538;18.972;2023-04-25T05:31:48;1.30;;;1.00;;
75400;SDS011;63974;47.538;18.972;2023-04-25T05:34:51;2.43;;;1.50;;
75400;SDS011;63974;47.538;18.972;2023-04-25T05:37:59;1.45;;;0.90;;
75400;SDS011;63974;47.538;18.972;2023-04-25T05:41:24;1.70;;;0.95;;
75400;SDS011;63974;47.538;18.972;2023-04-25T05:44:50;2.20;;;1.10;;
75400;SDS011;63974;47.538;18.972;2023-04-25T05:48:10;1.98;;;1.10;;
75400;SDS011;63974;47.538;18.972;2023-04-25T05:51:25;2.27;;;1.13;;
75400;SDS011;63974;47.538;18.972;2023-04-25T05:54:47;2.28;;;1.17;;
75400;SDS011;63974;47.538;18.972;2023-04-25T05:57:50;2.38;;;1.30;;
75400;SDS011;63974;47.538;18.972;2023-04-25T06:00:53;2.17;;;1.20;;
75400;SDS011;63974;47.538;18.972;2023-04-25T06:04:06;2.05;;;1.20;;
75400;SDS011;63974;47.538;18.972;2023-04-25T06:07:09;3.93;;;1.80;;
75400;SDS011;63974;47.538;18.972;2023-04-25T06:10:13;2.67;;;1.45;;
75400;SDS011;63974;47.538;18.972;2023-04-25T06:13:17;3.45;;;1.42;;
75400;SDS011;63974;47.538;18.972;2023-04-25T06:16:20;2.72;;;1.30;;
75400;SDS011;63974;47.538;18.972;2023-04-25T06:19:23;2.25;;;1.13;;
75400;SDS011;63974;47.538;18.972;2023-04-25T06:22:27;1.47;;;0.87;;
75400;SDS011;63974;47.538;18.972;2023-04-25T06:25:31;3.72;;;0.93;;
75400;SDS011;63974;47.538;18.972;2023-04-25T06:28:34;1.40;;;0.98;;
75400;SDS011;63974;47.538;18.972;2023-04-25T06:31:37;3.63;;;1.35;;
75400;SDS011;63974;47.538;18.972;2023-04-25T06:34:41;1.92;;;1.48;;
75400;SDS011;63974;47.538;18.972;2023-04-25T06:37:43;3.27;;;1.20;;
75400;SDS011;63974;47.538;18.972;2023-04-25T06:40:47;2.55;;;1.17;;
75400;SDS011;63974;47.538;18.972;2023-04-25T06:43:50;3.75;;;1.30;;
75400;SDS011;63974;47.538;18.972;2023-04-25T06:47:06;2.70;;;1.38;;
75400;SDS011;63974;47.538;18.972;2023-04-25T06:50:09;2.38;;;1.42;;
75400;SDS011;63974;47.538;18.972;2023-04-25T06:53:14;2.87;;;1.40;;
75400;SDS011;63974;47.538;18.972;2023-04-25T06:56:20;4.60;;;1.70;;
75400;SDS011;63974;47.538;18.972;2023-04-25T06:59:33;2.50;;;1.20;;
75400;SDS011;63974;47.538;18.972;2023-04-25T07:02:37;3.33;;;1.60;;
75400;SDS011;63974;47.538;18.972;2023-04-25T07:05:41;2.60;;;1.90;;
75400;SDS011;63974;47.538;18.972;2023-04-25T07:08:44;2.60;;;1.20;;
75400;SDS011;63974;47.538;18.972;2023-04-25T07:11:47;3.38;;;1.55;;
75400;SDS011;63974;47.538;18.972;2023-04-25T07:14:50;3.00;;;1.63;;
75400;SDS011;63974;47.538;18.972;2023-04-25T07:17:53;5.40;;;2.50;;
75400;SDS011;63974;47.538;18.972;2023-04-25T07:20:56;3.05;;;1.90;;
75400;SDS011;63974;47.538;18.972;2023-04-25T07:23:59;2.50;;;1.70;;
75400;SDS011;63974;47.538;18.972;2023-04-25T07:27:06;1.80;;;1.40;;
75400;SDS011;63974;47.538;18.972;2023-04-25T07:30:30;2.97;;;1.95;;
75400;SDS011;63974;47.538;18.972;2023-04-25T07:33:33;3.25;;;1.33;;
75400;SDS011;63974;47.538;18.972;2023-04-25T07:36:37;2.97;;;1.90;;
75400;SDS011;63974;47.538;18.972;2023-04-25T07:39:40;4.90;;;1.90;;
75400;SDS011;63974;47.538;18.972;2023-04-25T07:42:45;2.22;;;1.40;;
75400;SDS011;63974;47.538;18.972;2023-04-25T07:45:52;3.28;;;1.77;;
75400;SDS011;63974;47.538;18.972;2023-04-25T07:48:56;3.55;;;1.77;;
75400;SDS011;63974;47.538;18.972;2023-04-25T07:51:59;4.38;;;1.95;;
75400;SDS011;63974;47.538;18.972;2023-04-25T07:55:03;3.50;;;1.90;;
75400;SDS011;63974;47.538;18.972;2023-04-25T07:58:16;5.88;;;1.50;;
75400;SDS011;63974;47.538;18.972;2023-04-25T08:01:27;2.88;;;1.70;;
75400;SDS011;63974;47.538;18.972;2023-04-25T08:04:34;3.08;;;1.38;;
75400;SDS011;63974;47.538;18.972;2023-04-25T08:07:40;6.05;;;2.15;;
75400;SDS011;63974;47.538;18.972;2023-04-25T08:10:44;4.83;;;2.17;;
75400;SDS011;63974;47.538;18.972;2023-04-25T08:13:48;2.35;;;1.63;;
75400;SDS011;63974;47.538;18.972;2023-04-25T08:16:51;2.75;;;1.80;;
75400;SDS011;63974;47.538;18.972;2023-04-25T08:19:55;3.30;;;1.80;;
75400;SDS011;63974;47.538;18.972;2023-04-25T08:23:02;2.80;;;1.65;;
75400;SDS011;63974;47.538;18.972;2023-04-25T08:26:17;2.57;;;2.30;;
75400;SDS011;63974;47.538;18.972;2023-04-25T08:29:24;3.95;;;1.75;;
75400;SDS011;63974;47.538;18.972;2023-04-25T08:32:29;2.25;;;1.60;;
75400;SDS011;63974;47.538;18.972;2023-04-25T08:35:53;6.05;;;1.88;;
75400;SDS011;63974;47.538;18.972;2023-04-25T08:38:57;3.10;;;1.60;;
75400;SDS011;63974;47.538;18.972;2023-04-25T08:42:02;3.10;;;1.83;;
75400;SDS011;63974;47.538;18.972;2023-04-25T08:45:10;2.45;;;1.50;;
75400;SDS011;63974;47.538;18.972;2023-04-25T08:48:16;2.40;;;1.80;;
75400;SDS011;63974;47.538;18.972;2023-04-25T08:51:23;3.03;;;2.03;;
75400;SDS011;63974;47.538;18.972;2023-04-25T08:54:28;4.55;;;1.85;;
75400;SDS011;63974;47.538;18.972;2023-04-25T08:57:39;3.07;;;1.97;;
75400;SDS011;63974;47.538;18.972;2023-04-25T09:00:45;2.72;;;1.35;;
75400;SDS011;63974;47.538;18.972;2023-04-25T09:03:51;2.65;;;1.85;;
75400;SDS011;63974;47.538;18.972;2023-04-25T09:06:54;3.50;;;1.92;;
75400;SDS011;63974;47.538;18.972;2023-04-25T09:09:57;3.47;;;1.80;;
75400;SDS011;63974;47.538;18.972;2023-04-25T09:13:06;1.53;;;1.03;;
75400;SDS011;63974;47.538;18.972;2023-04-25T09:16:59;2.47;;;1.30;;
75400;SDS011;63974;47.538;18.972;2023-04-25T09:20:33;2.00;;;1.25;;
75400;SDS011;63974;47.538;18.972;2023-04-25T09:24:02;4.32;;;1.60;;
75400;SDS011;63974;47.538;18.972;2023-04-25T09:27:12;3.72;;;2.05;;
75400;SDS011;63974;47.538;18.972;2023-04-25T09:30:28;2.50;;;1.57;;
75400;SDS011;63974;47.538;18.972;2023-04-25T09:37:28;3.30;;;1.42;;
75400;SDS011;63974;47.538;18.972;2023-04-25T09:40:51;2.63;;;0.90;;
75400;SDS011;63974;47.538;18.972;2023-04-25T09:44:02;1.98;;;1.25;;
75400;SDS011;63974;47.538;18.972;2023-04-25T09:47:13;2.50;;;1.07;;
75400;SDS011;63974;47.538;18.972;2023-04-25T09:50:19;2.03;;;1.17;;
75400;SDS011;63974;47.538;18.972;2023-04-25T09:53:37;3.10;;;1.77;;
75400;SDS011;63974;47.538;18.972;2023-04-25T09:57:17;3.67;;;1.50;;
75400;SDS011;63974;47.538;18.972;2023-04-25T10:00:25;1.95;;;1.10;;
75400;SDS011;63974;47.538;18.972;2023-04-25T10:03:32;2.23;;;1.20;;
75400;SDS011;63974;47.538;18.972;2023-04-25T10:07:07;3.22;;;1.33;;
75400;SDS011;63974;47.538;18.972;2023-04-25T10:10:11;2.47;;;1.20;;
75400;SDS011;63974;47.538;18.972;2023-04-25T10:13:15;1.52;;;1.25;;
75400;SDS011;63974;47.538;18.972;2023-04-25T10:16:18;2.30;;;1.20;;
75400;SDS011;63974;47.538;18.972;2023-04-25T10:19:22;1.97;;;1.27;;
75400;SDS011;63974;47.538;18.972;2023-04-25T10:22:31;1.83;;;1.35;;
75400;SDS011;63974;47.538;18.972;2023-04-25T10:25:37;1.85;;;1.23;;
75400;SDS011;63974;47.538;18.972;2023-04-25T10:32:09;1.98;;;0.80;;
75400;SDS011;63974;47.538;18.972;2023-04-25T10:35:32;1.60;;;1.23;;
75400;SDS011;63974;47.538;18.972;2023-04-25T10:42:13;1.92;;;1.27;;
75400;SDS011;63974;47.538;18.972;2023-04-25T10:45:16;1.60;;;0.98;;
75400;SDS011;63974;47.538;18.972;2023-04-25T10:48:30;1.80;;;0.90;;
75400;SDS011;63974;47.538;18.972;2023-04-25T10:51:34;1.53;;;0.90;;
75400;SDS011;63974;47.538;18.972;2023-04-25T10:54:57;1.63;;;1.17;;
75400;SDS011;63974;47.538;18.972;2023-04-25T10:58:00;2.78;;;1.40;;
75400;SDS011;63974;47.538;18.972;2023-04-25T11:01:03;1.65;;;1.42;;
75400;SDS011;63974;47.538;18.972;2023-04-25T11:04:06;3.45;;;1.40;;
75400;SDS011;63974;47.538;18.972;2023-04-25T11:07:31;1.97;;;1.20;;
75400;SDS011;63974;47.538;18.972;2023-04-25T11:10:39;2.88;;;1.30;;
75400;SDS011;63974;47.538;18.972;2023-04-25T11:13:43;2.78;;;1.13;;
75400;SDS011;63974;47.538;18.972;2023-04-25T11:16:46;1.70;;;1.00;;
75400;SDS011;63974;47.538;18.972;2023-04-25T11:19:49;3.53;;;1.55;;
75400;SDS011;63974;47.538;18.972;2023-04-25T11:22:52;2.57;;;1.57;;
75400;SDS011;63974;47.538;18.972;2023-04-25T11:25:55;2.08;;;1.10;;
75400;SDS011;63974;47.538;18.972;2023-04-25T11:28:58;2.22;;;1.60;;
75400;SDS011;63974;47.538;18.972;2023-04-25T11:32:02;2.78;;;1.17;;
75400;SDS011;63974;47.538;18.972;2023-04-25T11:35:06;2.80;;;1.50;;
75400;SDS011;63974;47.538;18.972;2023-04-25T11:38:09;1.23;;;0.93;;
75400;SDS011;63974;47.538;18.972;2023-04-25T11:41:13;2.95;;;1.30;;
75400;SDS011;63974;47.538;18.972;2023-04-25T11:44:16;3.80;;;0.90;;
75400;SDS011;63974;47.538;18.972;2023-04-25T11:47:19;1.50;;;1.27;;
75400;SDS011;63974;47.538;18.972;2023-04-25T11:50:22;2.05;;;1.05;;
75400;SDS011;63974;47.538;18.972;2023-04-25T11:53:25;2.77;;;0.90;;
75400;SDS011;63974;47.538;18.972;2023-04-25T11:56:30;3.55;;;1.23;;
75400;SDS011;63974;47.538;18.972;2023-04-25T11:59:33;1.70;;;1.13;;
75400;SDS011;63974;47.538;18.972;2023-04-25T12:02:36;2.22;;;1.02;;
75400;SDS011;63974;47.538;18.972;2023-04-25T12:05:40;2.92;;;1.67;;
75400;SDS011;63974;47.538;18.972;2023-04-25T12:12:09;1.67;;;1.38;;
75400;SDS011;63974;47.538;18.972;2023-04-25T12:15:13;2.05;;;1.50;;
75400;SDS011;63974;47.538;18.972;2023-04-25T12:18:24;3.97;;;1.73;;
75400;SDS011;63974;47.538;18.972;2023-04-25T12:21:30;2.08;;;1.38;;
75400;SDS011;63974;47.538;18.972;2023-04-25T12:24:39;2.93;;;1.50;;
75400;SDS011;63974;47.538;18.972;2023-04-25T12:27:42;1.77;;;1.20;;
75400;SDS011;63974;47.538;18.972;2023-04-25T12:31:00;1.70;;;1.00;;
75400;SDS011;63974;47.538;18.972;2023-04-25T12:34:07;1.83;;;1.05;;
75400;SDS011;63974;47.538;18.972;2023-04-25T12:37:10;1.50;;;1.10;;
75400;SDS011;63974;47.538;18.972;2023-04-25T12:40:13;2.20;;;1.20;;
75400;SDS011;63974;47.538;18.972;2023-04-25T12:43:16;2.30;;;1.50;;
75400;SDS011;63974;47.538;18.972;2023-04-25T12:46:20;2.13;;;1.20;;
75400;SDS011;63974;47.538;18.972;2023-04-25T12:49:23;1.98;;;1.35;;
75400;SDS011;63974;47.538;18.972;2023-04-25T12:52:26;1.55;;;1.27;;
75400;SDS011;63974;47.538;18.972;2023-04-25T12:55:29;1.43;;;1.03;;
75400;SDS011;63974;47.538;18.972;2023-04-25T12:58:32;1.85;;;1.10;;
75400;SDS011;63974;47.538;18.972;2023-04-25T13:01:36;1.80;;;1.33;;
75400;SDS011;63974;47.538;18.972;2023-04-25T13:04:39;1.10;;;0.98;;
75400;SDS011;63974;47.538;18.972;2023-04-25T13:07:42;4.07;;;1.23;;
75400;SDS011;63974;47.538;18.972;2023-04-25T13:10:44;1.53;;;1.07;;
75400;SDS011;63974;47.538;18.972;2023-04-25T13:13:47;2.03;;;1.40;;
75400;SDS011;63974;47.538;18.972;2023-04-25T13:16:50;1.60;;;1.40;;
75400;SDS011;63974;47.538;18.972;2023-04-25T13:19:53;1.77;;;1.30;;
75400;SDS011;63974;47.538;18.972;2023-04-25T13:22:56;2.53;;;1.15;;
75400;SDS011;63974;47.538;18.972;2023-04-25T13:26:02;1.30;;;0.80;;
75400;SDS011;63974;47.538;18.972;2023-04-25T13:29:05;2.28;;;1.10;;
75400;SDS011;63974;47.538;18.972;2023-04-25T13:32:08;2.75;;;1.58;;
75400;SDS011;63974;47.538;18.972;2023-04-25T13:35:12;4.55;;;1.73;;
75400;SDS011;63974;47.538;18.972;2023-04-25T13:38:16;1.60;;;1.20;;
75400;SDS011;63974;47.538;18.972;2023-04-25T13:41:19;2.30;;;1.60;;
75400;SDS011;63974;47.538;18.972;2023-04-25T13:44:23;3.40;;;1.67;;
75400;SDS011;63974;47.538;18.972;2023-04-25T13:47:26;4.57;;;1.85;;
75400;SDS011;63974;47.538;18.972;2023-04-25T13:50:29;2.65;;;2.00;;
75400;SDS011;63974;47.538;18.972;2023-04-25T13:53:32;3.22;;;1.75;;
75400;SDS011;63974;47.538;18.972;2023-04-25T13:56:35;3.47;;;2.10;;
75400;SDS011;63974;47.538;18.972;2023-04-25T13:59:38;4.05;;;1.88;;
75400;SDS011;63974;47.538;18.972;2023-04-25T14:02:43;3.78;;;1.50;;
75400;SDS011;63974;47.538;18.972;2023-04-25T14:05:45;2.83;;;1.77;;
75400;SDS011;63974;47.538;18.972;2023-04-25T14:08:49;5.05;;;1.92;;
75400;SDS011;63974;47.538;18.972;2023-04-25T14:11:53;3.30;;;1.50;;
75400;SDS011;63974;47.538;18.972;2023-04-25T14:14:56;2.30;;;1.50;;
75400;SDS011;63974;47.538;18.972;2023-04-25T14:17:59;3.00;;;1.30;;
75400;SDS011;63974;47.538;18.972;2023-04-25T14:21:02;2.50;;;1.00;;
75400;SDS011;63974;47.538;18.972;2023-04-25T14:24:05;2.70;;;1.30;;
75400;SDS011;63974;47.538;18.972;2023-04-25T14:27:08;2.87;;;1.77;;
75400;SDS011;63974;47.538;18.972;2023-04-25T14:30:11;2.63;;;1.45;;
75400;SDS011;63974;47.538;18.972;2023-04-25T14:33:14;1.80;;;1.52;;
75400;SDS011;63974;47.538;18.972;2023-04-25T14:36:17;3.72;;;1.75;;
75400;SDS011;63974;47.538;18.972;2023-04-25T14:39:20;1.67;;;1.23;;
75400;SDS011;63974;47.538;18.972;2023-04-25T14:42:23;3.63;;;1.30;;
75400;SDS011;63974;47.538;18.972;2023-04-25T14:45:26;1.05;;;0.88;;
75400;SDS011;63974;47.538;18.972;2023-04-25T14:48:29;2.05;;;1.05;;
75400;SDS011;63974;47.538;18.972;2023-04-25T14:51:32;1.30;;;1.20;;
75400;SDS011;63974;47.538;18.972;2023-04-25T14:54:35;1.40;;;0.90;;
75400;SDS011;63974;47.538;18.972;2023-04-25T14:57:38;1.50;;;1.00;;
75400;SDS011;63974;47.538;18.972;2023-04-25T15:00:41;2.22;;;1.10;;
75400;SDS011;63974;47.538;18.972;2023-04-25T15:03:46;2.08;;;1.27;;
75400;SDS011;63974;47.538;18.972;2023-04-25T15:06:50;3.10;;;1.40;;
75400;SDS011;63974;47.538;18.972;2023-04-25T15:09:54;3.55;;;1.45;;
75400;SDS011;63974;47.538;18.972;2023-04-25T15:12:59;2.20;;;1.10;;
75400;SDS011;63974;47.538;18.972;2023-04-25T15:16:02;1.70;;;0.93;;
75400;SDS011;63974;47.538;18.972;2023-04-25T15:19:05;1.23;;;1.10;;
75400;SDS011;63974;47.538;18.972;2023-04-25T15:22:08;2.85;;;0.90;;
75400;SDS011;63974;47.538;18.972;2023-04-25T15:25:11;2.95;;;1.60;;
75400;SDS011;63974;47.538;18.972;2023-04-25T15:28:15;1.73;;;1.30;;
75400;SDS011;63974;47.538;18.972;2023-04-25T15:31:18;4.25;;;1.77;;
75400;SDS011;63974;47.538;18.972;2023-04-25T15:34:21;2.13;;;1.52;;
75400;SDS011;63974;47.538;18.972;2023-04-25T15:37:24;3.53;;;1.75;;
75400;SDS011;63974;47.538;18.972;2023-04-25T15:40:27;6.47;;;3.42;;
75400;SDS011;63974;47.538;18.972;2023-04-25T15:43:30;6.97;;;3.00;;
75400;SDS011;63974;47.538;18.972;2023-04-25T15:46:33;4.72;;;2.20;;
75400;SDS011;63974;47.538;18.972;2023-04-25T15:49:36;2.75;;;1.27;;
75400;SDS011;63974;47.538;18.972;2023-04-25T15:52:39;3.42;;;1.35;;
75400;SDS011;63974;47.538;18.972;2023-04-25T15:55:43;2.33;;;0.82;;
75400;SDS011;63974;47.538;18.972;2023-04-25T15:58:46;2.40;;;0.90;;
75400;SDS011;63974;47.538;18.972;2023-04-25T16:01:49;1.73;;;0.82;;
75400;SDS011;63974;47.538;18.972;2023-04-25T16:04:52;1.35;;;0.80;;
75400;SDS011;63974;47.538;18.972;2023-04-25T16:07:55;2.28;;;0.77;;
75400;SDS011;63974;47.538;18.972;2023-04-25T16:10:58;1.85;;;1.00;;
75400;SDS011;63974;47.538;18.972;2023-04-25T16:14:02;1.10;;;0.80;;
75400;SDS011;63974;47.538;18.972;2023-04-25T16:17:05;2.17;;;1.30;;
75400;SDS011;63974;47.538;18.972;2023-04-25T16:20:08;1.45;;;1.23;;
75400;SDS011;63974;47.538;18.972;2023-04-25T16:23:14;1.98;;;0.90;;
75400;SDS011;63974;47.538;18.972;2023-04-25T16:26:16;2.10;;;1.10;;
75400;SDS011;63974;47.538;18.972;2023-04-25T16:29:19;3.63;;;1.43;;
75400;SDS011;63974;47.538;18.972;2023-04-25T16:32:22;2.55;;;1.00;;
75400;SDS011;63974;47.538;18.972;2023-04-25T16:35:25;2.50;;;1.10;;
75400;SDS011;63974;47.538;18.972;2023-04-25T16:38:31;2.67;;;1.17;;
75400;SDS011;63974;47.538;18.972;2023-04-25T16:41:34;1.35;;;0.90;;
75400;SDS011;63974;47.538;18.972;2023-04-25T16:44:37;1.13;;;0.80;;
75400;SDS011;63974;47.538;18.972;2023-04-25T16:47:40;1.95;;;0.93;;
75400;SDS011;63974;47.538;18.972;2023-04-25T16:50:42;2.22;;;1.05;;
75400;SDS011;63974;47.538;18.972;2023-04-25T16:53:46;1.40;;;0.93;;
75400;SDS011;63974;47.538;18.972;2023-04-25T16:56:50;2.78;;;1.02;;
75400;SDS011;63974;47.538;18.972;2023-04-25T16:59:53;1.60;;;0.90;;
75400;SDS011;63974;47.538;18.972;2023-04-25T17:02:56;1.05;;;0.77;;
75400;SDS011;63974;47.538;18.972;2023-04-25T17:05:59;1.48;;;1.00;;
75400;SDS011;63974;47.538;18.972;2023-04-25T17:09:03;1.77;;;1.08;;
75400;SDS011;63974;47.538;18.972;2023-04-25T17:12:07;2.22;;;1.65;;
75400;SDS011;63974;47.538;18.972;2023-04-25T17:15:10;5.57;;;3.03;;
75400;SDS011;63974;47.538;18.972;2023-04-25T17:18:13;2.58;;;1.70;;
75400;SDS011;63974;47.538;18.972;2023-04-25T17:21:17;4.32;;;2.05;;
75400;SDS011;63974;47.538;18.972;2023-04-25T17:24:20;3.80;;;2.40;;
75400;SDS011;63974;47.538;18.972;2023-04-25T17:27:23;5.10;;;2.90;;
75400;SDS011;63974;47.538;18.972;2023-04-25T17:30:29;8.63;;;4.20;;
75400;SDS011;63974;47.538;18.972;2023-04-25T17:33:33;6.75;;;3.85;;
75400;SDS011;63974;47.538;18.972;2023-04-25T17:36:37;5.97;;;3.75;;
75400;SDS011;63974;47.538;18.972;2023-04-25T17:39:39;2.60;;;2.00;;
75400;SDS011;63974;47.538;18.972;2023-04-25T17:42:43;3.28;;;1.45;;
75400;SDS011;63974;47.538;18.972;2023-04-25T17:45:47;3.17;;;1.77;;
75400;SDS011;63974;47.538;18.972;2023-04-25T17:48:50;2.97;;;1.55;;
75400;SDS011;63974;47.538;18.972;2023-04-25T17:51:54;2.75;;;1.52;;
75400;SDS011;63974;47.538;18.972;2023-04-25T17:54:57;1.83;;;1.40;;
75400;SDS011;63974;47.538;18.972;2023-04-25T17:58:00;2.15;;;1.50;;
75400;SDS011;63974;47.538;18.972;2023-04-25T18:01:03;3.37;;;1.50;;
75400;SDS011;63974;47.538;18.972;2023-04-25T18:04:07;3.28;;;1.30;;
75400;SDS011;63974;47.538;18.972;2023-04-25T18:07:11;1.88;;;1.30;;
75400;SDS011;63974;47.538;18.972;2023-04-25T18:10:14;1.60;;;1.20;;
75400;SDS011;63974;47.538;18.972;2023-04-25T18:13:17;2.00;;;1.80;;
75400;SDS011;63974;47.538;18.972;2023-04-25T18:16:20;2.73;;;1.63;;
75400;SDS011;63974;47.538;18.972;2023-04-25T18:19:23;2.75;;;1.60;;
75400;SDS011;63974;47.538;18.972;2023-04-25T18:22:26;3.22;;;1.77;;
75400;SDS011;63974;47.538;18.972;2023-04-25T18:25:30;2.13;;;1.40;;
75400;SDS011;63974;47.538;18.972;2023-04-25T18:28:33;2.58;;;1.42;;
75400;SDS011;63974;47.538;18.972;2023-04-25T18:31:36;4.67;;;2.00;;
75400;SDS011;63974;47.538;18.972;2023-04-25T18:34:42;4.45;;;2.78;;
75400;SDS011;63974;47.538;18.972;2023-04-25T18:37:47;7.38;;;3.30;;